sensor_id;sensor_type;location;lat;lon;timestamp;P1;durP1;ratioP1;P2;durP2;ratioP2
5379;SDS011;2713;42.680;23.310;2023-02-12T02:33:40;11.27;;;9.03;;
5379;SDS011;2713;42.680;23.310;2023-02-12T02:36:19;14.48;;;10.35;;
5379;SDS011;2713;42.680;23.310;2023-02-12T02:38:54;14.30;;;10.13;;
5379;SDS011;2713;42.680;23.310;2023-02-12T02:41:26;12.75;;;10.45;;
5379;SDS011;2713;42.680;23.310;2023-02-12T02:43:57;14.40;;;10.30;;
5379;SDS011;2713;42.680;23.310;2023-02-12T02:46:28;14.88;;;10.60;;
5379;SDS011;2713;42.680;23.310;2023-02-12T02:49:00;11.30;;;8.95;;
5379;SDS011;2713;42.680;23.310;2023-02-12T02:51:31;13.38;;;10.18;;
5379;SDS011;2713;42.680;23.310;2023-02-12T02:54:01;15.30;;;9.98;;
5379;SDS011;2713;42.680;23.310;2023-02-12T02:56:34;14.95;;;10.43;;
5379;SDS011;2713;42.680;23.310;2023-02-12T02:59:04;14.95;;;10.50;;
5379;SDS011;2713;42.680;23.310;2023-02-12T03:01:37;14.98;;;10.90;;
5379;SDS011;2713;42.680;23.310;2023-02-12T03:04:09;16.80;;;11.18;;
5379;SDS011;2713;42.680;23.310;2023-02-12T03:06:42;14.00;;;10.30;;
5379;SDS011;2713;42.680;23.310;2023-02-12T03:09:15;17.98;;;11.15;;
5379;SDS011;2713;42.680;23.310;2023-02-12T03:11:46;15.90;;;10.88;;
5379;SDS011;2713;42.680;23.310;2023-02-12T03:14:15;16.48;;;11.55;;
5379;SDS011;2713;42.680;23.310;2023-02-12T03:16:48;17.45;;;11.25;;
5379;SDS011;2713;42.680;23.310;2023-02-12T03:19:21;17.05;;;11.35;;
5379;SDS011;2713;42.680;23.310;2023-02-12T03:21:52;14.85;;;11.07;;
5379;SDS011;2713;42.680;23.310;2023-02-12T03:24:23;16.08;;;11.70;;
5379;SDS011;2713;42.680;23.310;2023-02-12T03:26:54;15.98;;;11.60;;
5379;SDS011;2713;42.680;23.310;2023-02-12T03:29:27;16.83;;;12.70;;
5379;SDS011;2713;42.680;23.310;2023-02-12T03:31:56;20.83;;;13.43;;
5379;SDS011;2713;42.680;23.310;2023-02-12T03:34:36;17.08;;;12.68;;
5379;SDS011;2713;42.680;23.310;2023-02-12T03:37:13;16.98;;;11.45;;
5379;SDS011;2713;42.680;23.310;2023-02-12T03:39:44;15.68;;;11.63;;
5379;SDS011;2713;42.680;23.310;2023-02-12T03:42:21;17.45;;;12.25;;
5379;SDS011;2713;42.680;23.310;2023-02-12T03:44:55;15.80;;;11.80;;
5379;SDS011;2713;42.680;23.310;2023-02-12T03:47:27;17.45;;;11.68;;
5379;SDS011;2713;42.680;23.310;2023-02-12T03:50:08;18.17;;;11.40;;
5379;SDS011;2713;42.680;23.310;2023-02-12T03:52:38;14.35;;;11.35;;
5379;SDS011;2713;42.680;23.310;2023-02-12T03:55:05;16.77;;;11.60;;
5379;SDS011;2713;42.680;23.310;2023-02-12T03:57:36;15.40;;;11.38;;
5379;SDS011;2713;42.680;23.310;2023-02-12T04:00:07;16.90;;;11.80;;
5379;SDS011;2713;42.680;23.310;2023-02-12T04:02:45;18.55;;;12.55;;
5379;SDS011;2713;42.680;23.310;2023-02-12T04:05:18;13.18;;;11.20;;
5379;SDS011;2713;42.680;23.310;2023-02-12T04:07:47;17.20;;;12.35;;
5379;SDS011;2713;42.680;23.310;2023-02-12T04:10:15;19.00;;;13.77;;
5379;SDS011;2713;42.680;23.310;2023-02-12T04:12:45;16.73;;;12.60;;
5379;SDS011;2713;42.680;23.310;2023-02-12T04:18:09;15.68;;;11.80;;
5379;SDS011;2713;42.680;23.310;2023-02-12T04:20:45;19.88;;;13.00;;
5379;SDS011;2713;42.680;23.310;2023-02-12T04:23:21;16.73;;;12.27;;
5379;SDS011;2713;42.680;23.310;2023-02-12T04:26:01;16.90;;;11.48;;
5379;SDS011;2713;42.680;23.310;2023-02-12T04:28:39;17.10;;;12.25;;
5379;SDS011;2713;42.680;23.310;2023-02-12T04:31:16;17.85;;;11.90;;
5379;SDS011;2713;42.680;23.310;2023-02-12T04:33:48;19.10;;;12.18;;
5379;SDS011;2713;42.680;23.310;2023-02-12T04:36:23;17.80;;;12.20;;
5379;SDS011;2713;42.680;23.310;2023-02-12T04:38:54;14.02;;;11.40;;
5379;SDS011;2713;42.680;23.310;2023-02-12T04:41:23;21.80;;;13.95;;
5379;SDS011;2713;42.680;23.310;2023-02-12T04:43:51;18.85;;;12.05;;
5379;SDS011;2713;42.680;23.310;2023-02-12T04:46:17;15.80;;;11.25;;
5379;SDS011;2713;42.680;23.310;2023-02-12T04:48:48;16.02;;;11.35;;
5379;SDS011;2713;42.680;23.310;2023-02-12T04:51:18;17.25;;;12.75;;
5379;SDS011;2713;42.680;23.310;2023-02-12T04:53:47;14.90;;;11.43;;
5379;SDS011;2713;42.680;23.310;2023-02-12T04:56:14;15.95;;;11.93;;
5379;SDS011;2713;42.680;23.310;2023-02-12T04:58:41;17.67;;;11.65;;
5379;SDS011;2713;42.680;23.310;2023-02-12T05:01:08;17.10;;;11.85;;
5379;SDS011;2713;42.680;23.310;2023-02-12T05:03:35;17.00;;;11.63;;
5379;SDS011;2713;42.680;23.310;2023-02-12T05:06:03;16.65;;;11.75;;
5379;SDS011;2713;42.680;23.310;2023-02-12T05:08:30;15.07;;;11.55;;
5379;SDS011;2713;42.680;23.310;2023-02-12T05:11:03;15.13;;;11.50;;
5379;SDS011;2713;42.680;23.310;2023-02-12T05:13:30;17.27;;;12.27;;
5379;SDS011;2713;42.680;23.310;2023-02-12T05:15:57;20.48;;;13.18;;
5379;SDS011;2713;42.680;23.310;2023-02-12T05:18:24;18.10;;;12.65;;
5379;SDS011;2713;42.680;23.310;2023-02-12T05:20:54;17.40;;;12.43;;
5379;SDS011;2713;42.680;23.310;2023-02-12T05:23:22;17.27;;;11.65;;
5379;SDS011;2713;42.680;23.310;2023-02-12T05:25:52;18.40;;;11.70;;
5379;SDS011;2713;42.680;23.310;2023-02-12T05:28:20;15.85;;;11.50;;
5379;SDS011;2713;42.680;23.310;2023-02-12T05:30:47;15.48;;;11.45;;
5379;SDS011;2713;42.680;23.310;2023-02-12T05:33:13;13.05;;;10.55;;
5379;SDS011;2713;42.680;23.310;2023-02-12T05:35:40;13.77;;;10.00;;
5379;SDS011;2713;42.680;23.310;2023-02-12T05:38:07;11.65;;;9.25;;
5379;SDS011;2713;42.680;23.310;2023-02-12T05:40:34;12.60;;;8.90;;
5379;SDS011;2713;42.680;23.310;2023-02-12T05:43:01;16.25;;;9.82;;
5379;SDS011;2713;42.680;23.310;2023-02-12T05:45:29;11.40;;;9.27;;
5379;SDS011;2713;42.680;23.310;2023-02-12T05:47:57;16.05;;;10.05;;
5379;SDS011;2713;42.680;23.310;2023-02-12T05:50:24;16.67;;;10.07;;
5379;SDS011;2713;42.680;23.310;2023-02-12T05:52:58;19.80;;;11.02;;
5379;SDS011;2713;42.680;23.310;2023-02-12T05:55:25;15.68;;;10.68;;
5379;SDS011;2713;42.680;23.310;2023-02-12T05:57:52;15.02;;;11.15;;
5379;SDS011;2713;42.680;23.310;2023-02-12T06:00:19;14.85;;;10.85;;
5379;SDS011;2713;42.680;23.310;2023-02-12T06:02:48;16.10;;;11.00;;
5379;SDS011;2713;42.680;23.310;2023-02-12T06:05:15;17.75;;;10.88;;
5379;SDS011;2713;42.680;23.310;2023-02-12T06:07:42;16.10;;;10.65;;
5379;SDS011;2713;42.680;23.310;2023-02-12T06:10:09;13.32;;;9.80;;
5379;SDS011;2713;42.680;23.310;2023-02-12T06:12:36;14.85;;;9.60;;
5379;SDS011;2713;42.680;23.310;2023-02-12T06:15:03;14.27;;;9.68;;
5379;SDS011;2713;42.680;23.310;2023-02-12T06:17:30;14.70;;;9.13;;
5379;SDS011;2713;42.680;23.310;2023-02-12T06:19:58;14.80;;;9.80;;
5379;SDS011;2713;42.680;23.310;2023-02-12T06:22:26;12.63;;;9.48;;
5379;SDS011;2713;42.680;23.310;2023-02-12T06:24:52;13.35;;;9.77;;
5379;SDS011;2713;42.680;23.310;2023-02-12T06:27:19;14.32;;;9.60;;
5379;SDS011;2713;42.680;23.310;2023-02-12T06:29:46;11.77;;;8.77;;
5379;SDS011;2713;42.680;23.310;2023-02-12T06:32:13;18.50;;;10.85;;
5379;SDS011;2713;42.680;23.310;2023-02-12T06:34:39;11.90;;;9.30;;
5379;SDS011;2713;42.680;23.310;2023-02-12T06:37:08;13.77;;;8.55;;
5379;SDS011;2713;42.680;23.310;2023-02-12T06:39:34;11.95;;;8.38;;
5379;SDS011;2713;42.680;23.310;2023-02-12T06:42:01;13.48;;;8.73;;
5379;SDS011;2713;42.680;23.310;2023-02-12T06:44:28;11.60;;;8.82;;
5379;SDS011;2713;42.680;23.310;2023-02-12T06:46:55;14.52;;;10.57;;
5379;SDS011;2713;42.680;23.310;2023-02-12T06:49:23;13.65;;;9.18;;
5379;SDS011;2713;42.680;23.310;2023-02-12T06:51:49;13.50;;;9.70;;
5379;SDS011;2713;42.680;23.310;2023-02-12T06:54:18;13.77;;;9.17;;
5379;SDS011;2713;42.680;23.310;2023-02-12T06:56:44;14.15;;;10.27;;
5379;SDS011;2713;42.680;23.310;2023-02-12T06:59:12;16.65;;;10.40;;
5379;SDS011;2713;42.680;23.310;2023-02-12T07:01:40;11.65;;;8.95;;
5379;SDS011;2713;42.680;23.310;2023-02-12T07:04:07;13.20;;;9.07;;
5379;SDS011;2713;42.680;23.310;2023-02-12T07:06:35;15.82;;;9.68;;
5379;SDS011;2713;42.680;23.310;2023-02-12T07:09:02;12.52;;;9.40;;
5379;SDS011;2713;42.680;23.310;2023-02-12T07:11:32;12.52;;;9.23;;
5379;SDS011;2713;42.680;23.310;2023-02-12T07:14:00;14.77;;;10.10;;
5379;SDS011;2713;42.680;23.310;2023-02-12T07:16:27;13.25;;;10.13;;
5379;SDS011;2713;42.680;23.310;2023-02-12T07:18:53;12.73;;;9.50;;
5379;SDS011;2713;42.680;23.310;2023-02-12T07:21:20;12.50;;;9.48;;
5379;SDS011;2713;42.680;23.310;2023-02-12T07:23:47;10.85;;;8.82;;
5379;SDS011;2713;42.680;23.310;2023-02-12T07:26:15;13.30;;;9.30;;
5379;SDS011;2713;42.680;23.310;2023-02-12T07:28:44;13.20;;;9.25;;
5379;SDS011;2713;42.680;23.310;2023-02-12T07:31:11;10.55;;;9.00;;
5379;SDS011;2713;42.680;23.310;2023-02-12T07:33:40;13.73;;;8.68;;
5379;SDS011;2713;42.680;23.310;2023-02-12T07:36:08;15.00;;;9.65;;
5379;SDS011;2713;42.680;23.310;2023-02-12T07:38:37;14.18;;;10.15;;
5379;SDS011;2713;42.680;23.310;2023-02-12T07:41:05;14.35;;;10.27;;
5379;SDS011;2713;42.680;23.310;2023-02-12T07:43:33;16.27;;;11.07;;
5379;SDS011;2713;42.680;23.310;2023-02-12T07:46:06;16.13;;;11.10;;
5379;SDS011;2713;42.680;23.310;2023-02-12T07:48:33;16.65;;;11.50;;
5379;SDS011;2713;42.680;23.310;2023-02-12T07:51:02;15.95;;;11.48;;
5379;SDS011;2713;42.680;23.310;2023-02-12T07:53:30;14.43;;;11.10;;
5379;SDS011;2713;42.680;23.310;2023-02-12T07:56:03;15.18;;;10.63;;
5379;SDS011;2713;42.680;23.310;2023-02-12T07:58:30;14.73;;;11.35;;
5379;SDS011;2713;42.680;23.310;2023-02-12T08:00:57;28.27;;;19.60;;
5379;SDS011;2713;42.680;23.310;2023-02-12T08:03:25;15.77;;;12.32;;
5379;SDS011;2713;42.680;23.310;2023-02-12T08:05:53;13.73;;;11.20;;
5379;SDS011;2713;42.680;23.310;2023-02-12T08:08:20;18.88;;;11.75;;
5379;SDS011;2713;42.680;23.310;2023-02-12T08:10:47;16.88;;;12.32;;
5379;SDS011;2713;42.680;23.310;2023-02-12T08:13:13;16.55;;;11.85;;
5379;SDS011;2713;42.680;23.310;2023-02-12T08:15:40;18.40;;;12.20;;
5379;SDS011;2713;42.680;23.310;2023-02-12T08:18:07;16.90;;;11.98;;
5379;SDS011;2713;42.680;23.310;2023-02-12T08:20:35;16.02;;;12.15;;
5379;SDS011;2713;42.680;23.310;2023-02-12T08:23:02;16.73;;;11.88;;
5379;SDS011;2713;42.680;23.310;2023-02-12T08:25:28;19.50;;;12.77;;
5379;SDS011;2713;42.680;23.310;2023-02-12T08:27:55;17.55;;;12.30;;
5379;SDS011;2713;42.680;23.310;2023-02-12T08:30:22;87.63;;;37.90;;
5379;SDS011;2713;42.680;23.310;2023-02-12T08:32:49;24.10;;;15.27;;
5379;SDS011;2713;42.680;23.310;2023-02-12T08:35:16;21.98;;;14.85;;
5379;SDS011;2713;42.680;23.310;2023-02-12T08:37:44;20.23;;;14.85;;
5379;SDS011;2713;42.680;23.310;2023-02-12T08:40:11;19.20;;;13.88;;
5379;SDS011;2713;42.680;23.310;2023-02-12T08:42:38;94.25;;;41.50;;
5379;SDS011;2713;42.680;23.310;2023-02-12T08:45:05;25.40;;;16.70;;
5379;SDS011;2713;42.680;23.310;2023-02-12T08:47:32;21.23;;;15.32;;
5379;SDS011;2713;42.680;23.310;2023-02-12T08:49:59;22.42;;;14.57;;
5379;SDS011;2713;42.680;23.310;2023-02-12T08:52:26;21.63;;;15.13;;
5379;SDS011;2713;42.680;23.310;2023-02-12T08:54:54;23.23;;;15.48;;
5379;SDS011;2713;42.680;23.310;2023-02-12T08:57:21;20.05;;;15.23;;
5379;SDS011;2713;42.680;23.310;2023-02-12T08:59:48;25.90;;;16.17;;
5379;SDS011;2713;42.680;23.310;2023-02-12T09:02:15;20.45;;;14.07;;
5379;SDS011;2713;42.680;23.310;2023-02-12T09:04:41;19.20;;;13.45;;
5379;SDS011;2713;42.680;23.310;2023-02-12T09:07:08;19.90;;;12.82;;
5379;SDS011;2713;42.680;23.310;2023-02-12T09:09:35;18.52;;;14.20;;
5379;SDS011;2713;42.680;23.310;2023-02-12T09:12:03;16.58;;;13.20;;
5379;SDS011;2713;42.680;23.310;2023-02-12T09:14:30;19.33;;;12.93;;
5379;SDS011;2713;42.680;23.310;2023-02-12T09:16:57;17.38;;;12.70;;
5379;SDS011;2713;42.680;23.310;2023-02-12T09:19:24;21.08;;;13.90;;
5379;SDS011;2713;42.680;23.310;2023-02-12T09:21:51;17.38;;;13.82;;
5379;SDS011;2713;42.680;23.310;2023-02-12T09:24:18;18.98;;;13.98;;
5379;SDS011;2713;42.680;23.310;2023-02-12T09:26:45;19.75;;;13.20;;
5379;SDS011;2713;42.680;23.310;2023-02-12T09:29:14;19.42;;;13.68;;
5379;SDS011;2713;42.680;23.310;2023-02-12T09:31:41;22.73;;;14.88;;
5379;SDS011;2713;42.680;23.310;2023-02-12T09:34:07;20.83;;;14.88;;
5379;SDS011;2713;42.680;23.310;2023-02-12T09:36:34;20.20;;;14.52;;
5379;SDS011;2713;42.680;23.310;2023-02-12T09:39:01;18.25;;;13.77;;
5379;SDS011;2713;42.680;23.310;2023-02-12T09:44:26;22.75;;;15.10;;
5379;SDS011;2713;42.680;23.310;2023-02-12T09:47:02;20.77;;;14.45;;
5379;SDS011;2713;42.680;23.310;2023-02-12T09:52:28;16.33;;;13.07;;
5379;SDS011;2713;42.680;23.310;2023-02-12T09:54:56;23.85;;;14.85;;
5379;SDS011;2713;42.680;23.310;2023-02-12T09:57:24;22.55;;;15.27;;
5379;SDS011;2713;42.680;23.310;2023-02-12T09:59:57;20.27;;;15.10;;
5379;SDS011;2713;42.680;23.310;2023-02-12T10:02:27;20.15;;;13.38;;
5379;SDS011;2713;42.680;23.310;2023-02-12T10:04:53;23.95;;;14.60;;
5379;SDS011;2713;42.680;23.310;2023-02-12T10:07:25;21.98;;;15.88;;
5379;SDS011;2713;42.680;23.310;2023-02-12T10:10:07;18.13;;;14.07;;
5379;SDS011;2713;42.680;23.310;2023-02-12T10:12:45;19.75;;;13.75;;
5379;SDS011;2713;42.680;23.310;2023-02-12T10:15:23;22.98;;;14.40;;
5379;SDS011;2713;42.680;23.310;2023-02-12T10:18:00;25.00;;;15.80;;
5379;SDS011;2713;42.680;23.310;2023-02-12T10:20:39;21.42;;;15.27;;
5379;SDS011;2713;42.680;23.310;2023-02-12T10:23:24;22.88;;;15.38;;
5379;SDS011;2713;42.680;23.310;2023-02-12T10:26:07;26.30;;;17.48;;
5379;SDS011;2713;42.680;23.310;2023-02-12T10:28:41;25.55;;;16.60;;
5379;SDS011;2713;42.680;23.310;2023-02-12T10:31:14;27.33;;;17.35;;
5379;SDS011;2713;42.680;23.310;2023-02-12T10:33:45;24.63;;;16.90;;
5379;SDS011;2713;42.680;23.310;2023-02-12T10:36:17;27.48;;;17.58;;
5379;SDS011;2713;42.680;23.310;2023-02-12T10:38:54;27.55;;;17.13;;
5379;SDS011;2713;42.680;23.310;2023-02-12T10:41:26;27.02;;;17.70;;
5379;SDS011;2713;42.680;23.310;2023-02-12T10:43:55;26.70;;;17.77;;
5379;SDS011;2713;42.680;23.310;2023-02-12T10:46:24;25.23;;;18.30;;
5379;SDS011;2713;42.680;23.310;2023-02-12T11:35:54;26.70;;;17.45;;
5379;SDS011;2713;42.680;23.310;2023-02-12T11:38:27;30.35;;;18.88;;
5379;SDS011;2713;42.680;23.310;2023-02-12T11:41:01;26.77;;;19.90;;
5379;SDS011;2713;42.680;23.310;2023-02-12T11:43:33;29.38;;;20.27;;
5379;SDS011;2713;42.680;23.310;2023-02-12T11:46:03;28.38;;;19.75;;
5379;SDS011;2713;42.680;23.310;2023-02-12T11:48:34;28.05;;;19.70;;
5379;SDS011;2713;42.680;23.310;2023-02-12T11:51:05;26.95;;;20.13;;
5379;SDS011;2713;42.680;23.310;2023-02-12T11:53:35;26.80;;;18.55;;
5379;SDS011;2713;42.680;23.310;2023-02-12T11:56:06;25.83;;;18.13;;
5379;SDS011;2713;42.680;23.310;2023-02-12T11:58:35;28.65;;;18.90;;
5379;SDS011;2713;42.680;23.310;2023-02-12T12:01:03;25.30;;;18.25;;
5379;SDS011;2713;42.680;23.310;2023-02-12T12:03:37;26.52;;;18.27;;
5379;SDS011;2713;42.680;23.310;2023-02-12T12:06:15;27.90;;;18.23;;
5379;SDS011;2713;42.680;23.310;2023-02-12T12:08:50;31.52;;;19.95;;
5379;SDS011;2713;42.680;23.310;2023-02-12T12:11:24;28.27;;;19.55;;
5379;SDS011;2713;42.680;23.310;2023-02-12T12:13:56;29.65;;;18.83;;
5379;SDS011;2713;42.680;23.310;2023-02-12T12:16:29;27.00;;;19.63;;
5379;SDS011;2713;42.680;23.310;2023-02-12T12:19:21;32.72;;;21.70;;
5379;SDS011;2713;42.680;23.310;2023-02-12T12:22:17;29.30;;;19.47;;
5379;SDS011;2713;42.680;23.310;2023-02-12T12:24:56;25.92;;;19.30;;
5379;SDS011;2713;42.680;23.310;2023-02-12T12:27:32;24.92;;;17.90;;
5379;SDS011;2713;42.680;23.310;2023-02-12T12:30:24;34.83;;;20.67;;
5379;SDS011;2713;42.680;23.310;2023-02-12T12:33:02;28.47;;;17.73;;
5379;SDS011;2713;42.680;23.310;2023-02-12T12:35:36;27.93;;;18.17;;
5379;SDS011;2713;42.680;23.310;2023-02-12T12:38:11;28.67;;;18.60;;
5379;SDS011;2713;42.680;23.310;2023-02-12T12:40:51;27.15;;;19.13;;
5379;SDS011;2713;42.680;23.310;2023-02-12T12:43:29;28.75;;;18.80;;
5379;SDS011;2713;42.680;23.310;2023-02-12T12:46:09;25.50;;;18.87;;
5379;SDS011;2713;42.680;23.310;2023-02-12T12:49:10;27.97;;;18.90;;
5379;SDS011;2713;42.680;23.310;2023-02-12T12:52:06;24.95;;;17.58;;
5379;SDS011;2713;42.680;23.310;2023-02-12T12:54:57;25.27;;;17.33;;
5379;SDS011;2713;42.680;23.310;2023-02-12T12:57:42;27.75;;;19.92;;
5379;SDS011;2713;42.680;23.310;2023-02-12T13:00:30;29.17;;;19.65;;
5379;SDS011;2713;42.680;23.310;2023-02-12T13:03:26;24.90;;;18.57;;
5379;SDS011;2713;42.680;23.310;2023-02-12T13:06:20;25.40;;;18.15;;
5379;SDS011;2713;42.680;23.310;2023-02-12T13:09:01;26.17;;;19.10;;
5379;SDS011;2713;42.680;23.310;2023-02-12T13:11:42;25.90;;;17.85;;
5379;SDS011;2713;42.680;23.310;2023-02-12T13:14:22;25.00;;;18.52;;
5379;SDS011;2713;42.680;23.310;2023-02-12T13:16:58;26.77;;;18.05;;
5379;SDS011;2713;42.680;23.310;2023-02-12T13:19:33;24.67;;;18.70;;
5379;SDS011;2713;42.680;23.310;2023-02-12T13:22:10;25.70;;;18.83;;
5379;SDS011;2713;42.680;23.310;2023-02-12T13:24:44;27.17;;;19.60;;
5379;SDS011;2713;42.680;23.310;2023-02-12T13:27:18;28.20;;;19.42;;
5379;SDS011;2713;42.680;23.310;2023-02-12T13:29:48;29.10;;;19.45;;
5379;SDS011;2713;42.680;23.310;2023-02-12T13:32:21;29.95;;;19.65;;
5379;SDS011;2713;42.680;23.310;2023-02-12T13:34:52;28.23;;;19.48;;
5379;SDS011;2713;42.680;23.310;2023-02-12T13:37:22;27.15;;;20.13;;
5379;SDS011;2713;42.680;23.310;2023-02-12T13:39:59;27.77;;;19.27;;
5379;SDS011;2713;42.680;23.310;2023-02-12T13:42:36;33.80;;;22.63;;
5379;SDS011;2713;42.680;23.310;2023-02-12T13:45:16;32.20;;;19.95;;
5379;SDS011;2713;42.680;23.310;2023-02-12T13:48:00;27.73;;;20.40;;
5379;SDS011;2713;42.680;23.310;2023-02-12T13:50:43;30.05;;;19.65;;
5379;SDS011;2713;42.680;23.310;2023-02-12T13:53:18;30.25;;;19.77;;
5379;SDS011;2713;42.680;23.310;2023-02-12T13:55:55;28.52;;;19.67;;
5379;SDS011;2713;42.680;23.310;2023-02-12T13:58:50;29.10;;;20.92;;
5379;SDS011;2713;42.680;23.310;2023-02-12T14:04:25;31.58;;;20.00;;
5379;SDS011;2713;42.680;23.310;2023-02-12T14:06:59;29.52;;;19.60;;
5379;SDS011;2713;42.680;23.310;2023-02-12T14:09:33;33.05;;;21.38;;
5379;SDS011;2713;42.680;23.310;2023-02-12T14:12:03;26.25;;;19.40;;
5379;SDS011;2713;42.680;23.310;2023-02-12T14:14:34;28.65;;;19.20;;
5379;SDS011;2713;42.680;23.310;2023-02-12T14:20:07;35.67;;;20.58;;
5379;SDS011;2713;42.680;23.310;2023-02-12T14:22:56;29.10;;;19.55;;
5379;SDS011;2713;42.680;23.310;2023-02-12T14:25:39;29.50;;;19.10;;
5379;SDS011;2713;42.680;23.310;2023-02-12T14:28:17;29.45;;;21.05;;
5379;SDS011;2713;42.680;23.310;2023-02-12T14:37:13;31.97;;;20.67;;
5379;SDS011;2713;42.680;23.310;2023-02-12T14:45:51;31.15;;;20.98;;
5379;SDS011;2713;42.680;23.310;2023-02-12T14:51:13;32.50;;;20.52;;
5379;SDS011;2713;42.680;23.310;2023-02-12T14:53:46;30.23;;;20.83;;
5379;SDS011;2713;42.680;23.310;2023-02-12T14:56:18;34.78;;;21.42;;
5379;SDS011;2713;42.680;23.310;2023-02-12T14:58:47;30.27;;;21.42;;
5379;SDS011;2713;42.680;23.310;2023-02-12T15:01:14;33.15;;;22.90;;
5379;SDS011;2713;42.680;23.310;2023-02-12T15:03:42;32.15;;;21.77;;
5379;SDS011;2713;42.680;23.310;2023-02-12T15:06:14;34.55;;;23.58;;
5379;SDS011;2713;42.680;23.310;2023-02-12T15:08:43;33.88;;;22.52;;
5379;SDS011;2713;42.680;23.310;2023-02-12T15:11:19;33.17;;;22.75;;
5379;SDS011;2713;42.680;23.310;2023-02-12T15:13:52;38.65;;;24.85;;
5379;SDS011;2713;42.680;23.310;2023-02-12T15:16:25;35.25;;;22.98;;
5379;SDS011;2713;42.680;23.310;2023-02-12T15:18:59;36.38;;;23.45;;
5379;SDS011;2713;42.680;23.310;2023-02-12T15:21:31;35.25;;;23.42;;
5379;SDS011;2713;42.680;23.310;2023-02-12T15:24:02;38.60;;;24.95;;
5379;SDS011;2713;42.680;23.310;2023-02-12T15:26:31;34.25;;;24.13;;
5379;SDS011;2713;42.680;23.310;2023-02-12T15:29:00;35.35;;;23.83;;
5379;SDS011;2713;42.680;23.310;2023-02-12T15:31:29;39.08;;;24.25;;
5379;SDS011;2713;42.680;23.310;2023-02-12T15:33:58;41.63;;;25.67;;
5379;SDS011;2713;42.680;23.310;2023-02-12T15:36:28;36.25;;;23.95;;
5379;SDS011;2713;42.680;23.310;2023-02-12T15:38:58;42.08;;;25.63;;
5379;SDS011;2713;42.680;23.310;2023-02-12T15:41:35;41.38;;;27.13;;
5379;SDS011;2713;42.680;23.310;2023-02-12T15:44:17;37.97;;;25.27;;
5379;SDS011;2713;42.680;23.310;2023-02-12T15:46:52;37.90;;;24.58;;
5379;SDS011;2713;42.680;23.310;2023-02-12T15:49:28;36.38;;;24.63;;
5379;SDS011;2713;42.680;23.310;2023-02-12T15:52:00;37.70;;;24.58;;
5379;SDS011;2713;42.680;23.310;2023-02-12T15:54:30;37.47;;;24.05;;
5379;SDS011;2713;42.680;23.310;2023-02-12T15:56:58;38.95;;;25.67;;
5379;SDS011;2713;42.680;23.310;2023-02-12T15:59:26;37.10;;;24.67;;
5379;SDS011;2713;42.680;23.310;2023-02-12T16:01:55;34.85;;;23.75;;
5379;SDS011;2713;42.680;23.310;2023-02-12T16:04:25;36.65;;;24.38;;
5379;SDS011;2713;42.680;23.310;2023-02-12T16:06:55;39.53;;;26.35;;
5379;SDS011;2713;42.680;23.310;2023-02-12T16:09:25;40.28;;;25.40;;
5379;SDS011;2713;42.680;23.310;2023-02-12T16:11:56;38.67;;;25.05;;
5379;SDS011;2713;42.680;23.310;2023-02-12T16:14:27;34.93;;;23.53;;
5379;SDS011;2713;42.680;23.310;2023-02-12T16:17:17;37.85;;;23.80;;
5379;SDS011;2713;42.680;23.310;2023-02-12T16:19:52;40.63;;;25.30;;
5379;SDS011;2713;42.680;23.310;2023-02-12T16:22:19;40.67;;;25.55;;
5379;SDS011;2713;42.680;23.310;2023-02-12T16:24:51;38.65;;;24.85;;
5379;SDS011;2713;42.680;23.310;2023-02-12T16:27:23;39.92;;;26.15;;
5379;SDS011;2713;42.680;23.310;2023-02-12T16:29:52;43.88;;;26.08;;
5379;SDS011;2713;42.680;23.310;2023-02-12T16:32:29;40.97;;;26.30;;
5379;SDS011;2713;42.680;23.310;2023-02-12T16:35:00;42.45;;;25.75;;
5379;SDS011;2713;42.680;23.310;2023-02-12T16:37:40;42.10;;;27.27;;
5379;SDS011;2713;42.680;23.310;2023-02-12T16:40:16;41.05;;;26.48;;
5379;SDS011;2713;42.680;23.310;2023-02-12T16:42:58;41.05;;;27.10;;
5379;SDS011;2713;42.680;23.310;2023-02-12T16:45:33;38.33;;;25.50;;
5379;SDS011;2713;42.680;23.310;2023-02-12T16:48:07;56.92;;;31.05;;
5379;SDS011;2713;42.680;23.310;2023-02-12T16:50:43;47.72;;;27.45;;
5379;SDS011;2713;42.680;23.310;2023-02-12T16:53:22;41.65;;;26.55;;
5379;SDS011;2713;42.680;23.310;2023-02-12T16:55:51;39.55;;;27.33;;
5379;SDS011;2713;42.680;23.310;2023-02-12T16:58:19;45.70;;;28.30;;
5379;SDS011;2713;42.680;23.310;2023-02-12T17:00:46;47.35;;;28.13;;
5379;SDS011;2713;42.680;23.310;2023-02-12T17:03:13;42.90;;;28.45;;
5379;SDS011;2713;42.680;23.310;2023-02-12T17:05:42;47.05;;;29.73;;
5379;SDS011;2713;42.680;23.310;2023-02-12T17:08:11;43.78;;;29.05;;
5379;SDS011;2713;42.680;23.310;2023-02-12T17:10:39;47.53;;;29.77;;
5379;SDS011;2713;42.680;23.310;2023-02-12T17:13:06;46.83;;;29.83;;
5379;SDS011;2713;42.680;23.310;2023-02-12T17:15:34;45.75;;;29.23;;
5379;SDS011;2713;42.680;23.310;2023-02-12T17:18:06;46.70;;;29.00;;
5379;SDS011;2713;42.680;23.310;2023-02-12T17:20:35;46.72;;;29.58;;
5379;SDS011;2713;42.680;23.310;2023-02-12T17:23:02;49.55;;;31.55;;
5379;SDS011;2713;42.680;23.310;2023-02-12T17:25:29;46.35;;;29.88;;
5379;SDS011;2713;42.680;23.310;2023-02-12T17:27:58;49.83;;;32.35;;
5379;SDS011;2713;42.680;23.310;2023-02-12T17:30:25;57.42;;;31.95;;
5379;SDS011;2713;42.680;23.310;2023-02-12T17:32:54;49.83;;;31.75;;
5379;SDS011;2713;42.680;23.310;2023-02-12T17:35:21;48.00;;;32.25;;
5379;SDS011;2713;42.680;23.310;2023-02-12T17:37:48;49.67;;;30.52;;
5379;SDS011;2713;42.680;23.310;2023-02-12T17:40:14;53.80;;;32.15;;
5379;SDS011;2713;42.680;23.310;2023-02-12T17:42:42;46.85;;;31.35;;
5379;SDS011;2713;42.680;23.310;2023-02-12T18:50:42;58.80;;;36.10;;
5379;SDS011;2713;42.680;23.310;2023-02-12T18:53:09;53.35;;;32.10;;
5379;SDS011;2713;42.680;23.310;2023-02-12T18:55:36;51.17;;;31.83;;
5379;SDS011;2713;42.680;23.310;2023-02-12T18:58:04;50.77;;;29.57;;
5379;SDS011;2713;42.680;23.310;2023-02-12T19:00:31;50.07;;;30.00;;
5379;SDS011;2713;42.680;23.310;2023-02-12T19:02:57;47.90;;;29.43;;
5379;SDS011;2713;42.680;23.310;2023-02-12T19:05:24;46.70;;;27.77;;
5379;SDS011;2713;42.680;23.310;2023-02-12T19:07:53;43.70;;;28.10;;
5379;SDS011;2713;42.680;23.310;2023-02-12T19:10:20;45.65;;;27.73;;
5379;SDS011;2713;42.680;23.310;2023-02-12T19:12:47;53.22;;;28.27;;
5379;SDS011;2713;42.680;23.310;2023-02-12T19:15:14;47.08;;;29.52;;
5379;SDS011;2713;42.680;23.310;2023-02-12T19:17:41;52.90;;;31.67;;
5379;SDS011;2713;42.680;23.310;2023-02-12T19:20:08;48.70;;;30.45;;
5379;SDS011;2713;42.680;23.310;2023-02-12T19:22:36;47.15;;;29.55;;
5379;SDS011;2713;42.680;23.310;2023-02-12T19:25:05;50.73;;;32.30;;
5379;SDS011;2713;42.680;23.310;2023-02-12T19:27:32;49.03;;;32.17;;
5379;SDS011;2713;42.680;23.310;2023-02-12T19:29:59;52.28;;;33.35;;
5379;SDS011;2713;42.680;23.310;2023-02-12T19:32:27;57.75;;;35.63;;
5379;SDS011;2713;42.680;23.310;2023-02-12T19:34:54;61.20;;;37.57;;
5379;SDS011;2713;42.680;23.310;2023-02-12T19:37:20;58.75;;;36.53;;
5379;SDS011;2713;42.680;23.310;2023-02-12T19:39:47;58.78;;;36.58;;
5379;SDS011;2713;42.680;23.310;2023-02-12T19:42:15;57.42;;;35.95;;
5379;SDS011;2713;42.680;23.310;2023-02-12T19:44:42;52.55;;;33.95;;
5379;SDS011;2713;42.680;23.310;2023-02-12T19:47:10;53.75;;;34.47;;
5379;SDS011;2713;42.680;23.310;2023-02-12T19:49:37;59.70;;;37.33;;
5379;SDS011;2713;42.680;23.310;2023-02-12T19:52:05;61.33;;;36.45;;
5379;SDS011;2713;42.680;23.310;2023-02-12T19:54:32;65.32;;;38.28;;